Time;durP1;ratioP1;P1;durP2;ratioP2;P2;SDS_P1;SDS_P2;PMS_P1;PMS_P2;Temp;Humidity;BMP_temperature;BMP_pressure;BME280_temperature;BME280_humidity;BME280_pressure;Samples;Min_cycle;Max_cycle;Signal;HPM_P1;HPM_P2
2022/01/02 00:02:11;;;;;;;7.23;6.53;;;8.50;99.90;;;;;;10367743;28;20245;-79
2022/01/02 00:07:15;;;;;;;8.50;6.80;;;8.60;99.90;;;;;;10345115;28;20195;-79
2022/01/02 00:12:21;;;;;;;8.27;6.03;;;8.60;99.90;;;;;;10368312;28;20232;-77
2022/01/02 00:17:24;;;;;;;6.13;5.63;;;8.60;99.90;;;;;;10374483;28;20660;-77
2022/01/02 00:22:32;;;;;;;6.60;5.50;;;8.60;99.90;;;;;;10368067;28;20717;-80
2022/01/02 00:27:36;;;;;;;6.40;5.90;;;8.60;99.90;;;;;;10356120;28;20226;-78
2022/01/02 00:32:39;;;;;;;6.77;6.17;;;8.60;99.90;;;;;;10369072;28;20261;-79
2022/01/02 00:37:41;;;;;;;5.80;5.13;;;8.50;99.90;;;;;;10361812;28;20322;-79
2022/01/02 00:42:45;;;;;;;7.10;6.40;;;8.50;99.90;;;;;;10376633;28;20725;-78
2022/01/02 00:47:57;;;;;;;8.43;5.67;;;8.50;99.90;;;;;;10375815;28;20202;-78
2022/01/02 00:53:02;;;;;;;6.27;5.67;;;8.50;99.90;;;;;;10373811;28;20230;-79
2022/01/02 00:58:10;;;;;;;6.43;5.63;;;8.50;99.90;;;;;;10377482;28;20284;-82
2022/01/02 01:03:20;;;;;;;5.60;5.07;;;8.30;99.90;;;;;;10375017;28;20707;-82
2022/01/02 01:08:24;;;;;;;6.47;5.60;;;8.30;99.90;;;;;;10378959;28;20191;-81
2022/01/02 01:13:27;;;;;;;5.63;5.10;;;8.30;99.90;;;;;;10378347;28;20211;-82
2022/01/02 01:18:30;;;;;;;6.53;5.50;;;8.30;99.90;;;;;;10356824;28;20229;-82
2022/01/02 01:23:32;;;;;;;6.90;4.90;;;8.30;99.90;;;;;;10373879;28;20218;-80
2022/01/02 01:28:35;;;;;;;6.07;5.57;;;8.40;99.90;;;;;;10351321;28;20293;-79
2022/01/02 01:33:38;;;;;;;4.83;4.50;;;8.30;99.90;;;;;;10361969;28;20681;-81
2022/01/02 01:38:40;;;;;;;7.23;5.10;;;8.30;99.90;;;;;;10380077;28;20230;-80
2022/01/02 01:43:54;;;;;;;5.30;4.80;;;8.20;99.90;;;;;;10380685;28;20226;-80
2022/01/02 01:48:56;;;;;;;6.03;5.47;;;8.20;99.90;;;;;;10378182;28;20249;-80
2022/01/02 01:53:58;;;;;;;5.17;4.77;;;8.20;99.90;;;;;;10371853;28;20285;-79
2022/01/02 01:59:04;;;;;;;4.97;4.57;;;8.20;99.90;;;;;;10372138;28;20756;-80
2022/01/02 02:04:06;;;;;;;5.00;4.60;;;8.10;99.90;;;;;;10376989;28;20222;-80
2022/01/02 02:09:08;;;;;;;4.87;4.47;;;8.10;99.90;;;;;;10374778;28;20285;-80
2022/01/02 02:14:14;;;;;;;5.20;4.77;;;8.10;99.90;;;;;;10378782;28;20228;-80
2022/01/02 02:19:17;;;;;;;5.37;4.87;;;8.10;99.90;;;;;;10374957;28;20253;-80
2022/01/02 02:24:21;;;;;;;4.93;4.53;;;8.00;99.90;;;;;;10366665;28;20229;-80
2022/01/02 02:29:23;;;;;;;4.60;4.30;;;8.00;99.90;;;;;;10365864;28;20677;-80
2022/01/02 02:34:26;;;;;;;4.23;3.87;;;8.00;99.90;;;;;;10374801;28;20227;-81
2022/01/02 02:39:32;;;;;;;5.10;4.70;;;8.00;99.90;;;;;;10364660;28;20649;-79
2022/01/02 02:44:37;;;;;;;6.23;4.50;;;8.00;99.90;;;;;;10375086;28;20223;-80
2022/01/02 02:49:41;;;;;;;5.90;5.40;;;8.00;99.90;;;;;;10373934;28;20273;-79
2022/01/02 02:54:47;;;;;;;7.30;5.87;;;7.90;99.90;;;;;;10375637;28;20254;-80
2022/01/02 02:59:49;;;;;;;5.53;4.87;;;7.90;99.90;;;;;;10376781;28;20227;-80
2022/01/02 03:04:51;;;;;;;5.90;5.40;;;7.90;99.90;;;;;;10371017;28;20289;-78
2022/01/02 03:09:58;;;;;;;6.20;5.60;;;7.90;99.90;;;;;;10368052;28;20209;-79
2022/01/02 03:15:00;;;;;;;5.30;4.80;;;7.90;99.90;;;;;;10374199;28;20213;-77
2022/01/02 03:20:03;;;;;;;5.63;5.13;;;7.90;99.90;;;;;;10367974;28;20280;-77
2022/01/02 03:25:09;;;;;;;6.00;5.50;;;7.90;99.90;;;;;;10362075;28;20208;-80
2022/01/02 03:30:13;;;;;;;6.33;5.73;;;7.90;99.90;;;;;;10365788;28;20195;-80
2022/01/02 03:35:15;;;;;;;5.63;5.13;;;7.90;99.90;;;;;;10366026;28;20195;-78
2022/01/02 03:40:19;;;;;;;5.77;5.37;;;7.90;99.90;;;;;;10356519;28;20222;-79
2022/01/02 03:45:22;;;;;;;7.50;5.37;;;7.90;99.90;;;;;;10358074;28;20241;-79
2022/01/02 03:50:25;;;;;;;5.80;5.30;;;7.90;99.90;;;;;;10376018;28;20230;-80
2022/01/02 03:55:29;;;;;;;6.17;5.60;;;7.80;99.90;;;;;;10376946;28;20208;-81
2022/01/02 04:00:31;;;;;;;6.30;5.80;;;7.80;99.90;;;;;;10366027;28;20253;-81
2022/01/02 04:05:34;;;;;;;6.47;5.87;;;7.70;99.90;;;;;;10363806;28;20229;-80
2022/01/02 04:10:38;;;;;;;6.50;5.90;;;7.70;99.90;;;;;;10377377;28;20214;-80
2022/01/02 04:15:40;;;;;;;7.90;5.70;;;7.70;99.90;;;;;;10375768;28;20206;-80
2022/01/02 04:20:44;;;;;;;6.20;5.60;;;7.70;99.90;;;;;;10378266;28;20594;-80
2022/01/02 04:25:48;;;;;;;6.50;5.90;;;7.70;99.90;;;;;;10383044;28;20671;-79
2022/01/02 04:30:51;;;;;;;6.60;6.10;;;7.50;99.90;;;;;;10390794;28;20215;-80
2022/01/02 04:35:54;;;;;;;5.90;5.40;;;7.50;99.90;;;;;;10392375;28;20617;-80
2022/01/02 04:40:57;;;;;;;6.70;6.10;;;7.50;99.90;;;;;;10374190;28;20232;-80
2022/01/02 04:46:00;;;;;;;6.40;5.80;;;7.60;99.90;;;;;;10391407;28;20206;-81
2022/01/02 04:51:03;;;;;;;6.10;5.60;;;7.60;99.90;;;;;;10376207;28;20230;-80
2022/01/02 04:56:06;;;;;;;6.97;6.37;;;7.60;99.90;;;;;;10392060;28;20695;-80
2022/01/02 05:01:11;;;;;;;7.10;6.50;;;7.60;99.90;;;;;;10376163;28;20218;-80
2022/01/02 05:06:14;;;;;;;6.50;5.90;;;7.60;99.90;;;;;;10394121;28;20205;-79
2022/01/02 05:11:18;;;;;;;6.53;5.90;;;7.60;99.90;;;;;;10397830;28;20317;-80
2022/01/02 05:16:20;;;;;;;6.40;5.80;;;7.60;99.90;;;;;;10373019;28;20214;-80
2022/01/02 05:21:23;;;;;;;6.60;6.00;;;7.60;99.90;;;;;;10384309;28;20247;-79
2022/01/02 05:26:26;;;;;;;6.40;5.90;;;7.70;99.90;;;;;;10383609;28;20575;-80
2022/01/02 05:31:29;;;;;;;6.33;5.83;;;7.70;99.90;;;;;;10373867;28;20223;-80
2022/01/02 05:36:33;;;;;;;6.60;6.00;;;7.70;99.90;;;;;;10389210;28;20237;-79
2022/01/02 05:41:37;;;;;;;6.70;6.10;;;7.70;99.90;;;;;;10381772;28;20214;-79
2022/01/02 05:46:40;;;;;;;6.73;6.13;;;7.80;99.90;;;;;;10382868;28;20286;-80
2022/01/02 05:51:43;;;;;;;7.40;6.77;;;7.80;99.90;;;;;;10380441;28;20237;-80
2022/01/02 05:56:46;;;;;;;7.90;7.20;;;7.90;99.90;;;;;;10380578;28;20210;-80
2022/01/02 06:01:48;;;;;;;9.10;8.30;;;8.00;99.90;;;;;;10381381;28;20226;-80
2022/01/02 06:06:51;;;;;;;10.90;9.90;;;8.00;99.90;;;;;;10380558;28;20219;-79
2022/01/02 06:11:56;;;;;;;10.83;9.73;;;8.10;99.90;;;;;;10379070;28;20644;-79
2022/01/02 06:16:58;;;;;;;8.77;7.97;;;8.10;99.90;;;;;;10377803;28;20211;-79
2022/01/02 06:22:01;;;;;;;8.23;7.50;;;8.10;99.90;;;;;;10373537;28;20230;-80
2022/01/02 06:27:06;;;;;;;8.40;7.70;;;8.20;99.90;;;;;;10385025;28;20212;-80
2022/01/02 06:32:09;;;;;;;8.00;7.30;;;8.20;99.90;;;;;;10378335;28;20634;-80
2022/01/02 06:37:11;;;;;;;7.27;6.67;;;8.20;99.90;;;;;;10394531;28;20650;-80
2022/01/02 06:42:15;;;;;;;8.50;7.80;;;8.30;99.90;;;;;;10361267;28;20277;-79
2022/01/02 06:47:17;;;;;;;7.33;6.73;;;8.30;99.90;;;;;;10377346;28;20281;-80
2022/01/02 06:52:19;;;;;;;7.83;7.13;;;8.20;99.90;;;;;;10374806;28;20285;-78
2022/01/02 06:57:23;;;;;;;7.53;6.93;;;8.20;99.90;;;;;;10364562;28;20214;-78
2022/01/02 07:02:25;;;;;;;7.33;6.63;;;8.30;99.90;;;;;;10374143;28;20221;-78
2022/01/02 07:07:27;;;;;;;7.40;6.80;;;8.30;99.90;;;;;;10374176;28;20199;-77
2022/01/02 07:12:31;;;;;;;7.03;6.43;;;8.30;99.90;;;;;;10357845;28;20585;-79
2022/01/02 07:17:33;;;;;;;7.67;7.03;;;8.20;99.90;;;;;;10373834;28;20222;-79
2022/01/02 07:22:35;;;;;;;6.20;5.67;;;8.20;99.90;;;;;;10363361;28;20228;-79
2022/01/02 07:27:39;;;;;;;7.43;6.73;;;8.30;99.90;;;;;;10361261;28;20202;-78
2022/01/02 07:32:42;;;;;;;5.57;5.07;;;8.40;99.90;;;;;;10374437;28;20594;-79
2022/01/02 07:37:44;;;;;;;7.63;7.03;;;8.40;99.90;;;;;;10343664;28;20730;-78
2022/01/02 07:42:47;;;;;;;10.10;9.20;;;8.40;99.90;;;;;;10372427;28;20231;-77
2022/01/02 07:47:55;;;;;;;9.93;8.97;;;8.40;99.90;;;;;;10373477;28;20253;-78
2022/01/02 07:52:57;;;;;;;11.07;10.03;;;8.50;99.90;;;;;;10373406;28;20609;-80
2022/01/02 07:58:01;;;;;;;12.17;10.23;;;8.50;99.90;;;;;;10372194;28;20582;-77
2022/01/02 08:03:03;;;;;;;10.80;9.90;;;8.60;99.90;;;;;;10377954;28;20214;-81
2022/01/02 08:08:05;;;;;;;10.07;9.03;;;8.60;99.90;;;;;;10381930;28;20453;-80
2022/01/02 08:13:09;;;;;;;9.30;8.40;;;8.60;99.90;;;;;;10379680;28;20223;-81
2022/01/02 08:18:13;;;;;;;8.50;7.70;;;8.70;99.90;;;;;;10380199;28;20229;-81
2022/01/02 08:23:15;;;;;;;8.13;7.43;;;8.70;99.90;;;;;;10377239;28;20310;-81
2022/01/02 08:28:19;;;;;;;11.73;10.53;;;8.70;99.90;;;;;;10382288;28;20195;-81
2022/01/02 08:33:21;;;;;;;9.83;8.83;;;8.70;99.90;;;;;;10393817;28;20236;-81
2022/01/02 08:38:23;;;;;;;10.10;9.20;;;8.80;99.90;;;;;;10377336;28;20562;-80
2022/01/02 08:43:27;;;;;;;9.57;8.77;;;8.90;99.90;;;;;;10376733;28;20223;-80
2022/01/02 08:48:29;;;;;;;9.90;9.00;;;9.10;99.90;;;;;;10377362;28;20559;-80
2022/01/02 08:53:32;;;;;;;13.33;9.80;;;9.30;99.90;;;;;;10378837;28;20241;-80
2022/01/02 08:58:36;;;;;;;9.80;8.87;;;9.40;99.90;;;;;;10376133;28;20238;-80
2022/01/02 09:03:38;;;;;;;10.73;9.70;;;9.50;99.90;;;;;;10374984;28;20262;-81
2022/01/02 09:08:41;;;;;;;10.43;9.53;;;9.70;99.90;;;;;;10380277;28;20195;-81
2022/01/02 09:13:44;;;;;;;9.93;8.93;;;9.70;99.90;;;;;;10382988;28;20218;-81
2022/01/02 09:18:46;;;;;;;10.10;9.20;;;9.90;99.90;;;;;;10383458;28;20687;-81
2022/01/02 09:23:48;;;;;;;10.40;9.40;;;10.00;99.90;;;;;;10389344;28;20223;-81
2022/01/02 09:28:52;;;;;;;9.90;9.00;;;10.10;99.90;;;;;;10382756;28;20194;-81
2022/01/02 09:33:54;;;;;;;9.40;8.60;;;10.20;99.90;;;;;;10381822;28;20302;-80
2022/01/02 09:38:57;;;;;;;10.87;9.30;;;10.30;99.90;;;;;;10383909;28;20589;-81
2022/01/02 09:44:01;;;;;;;9.17;8.43;;;10.40;99.90;;;;;;10380539;28;20223;-81
2022/01/02 09:49:04;;;;;;;9.80;9.00;;;10.50;99.90;;;;;;10380467;28;20545;-81
2022/01/02 09:54:09;;;;;;;8.83;8.13;;;10.60;99.90;;;;;;10367896;28;20655;-78
2022/01/02 09:59:13;;;;;;;9.90;9.10;;;10.70;99.90;;;;;;10350014;28;20229;-79
2022/01/02 10:04:32;;;;;;;9.47;8.67;;;10.70;99.90;;;;;;10347864;28;20704;-79
2022/01/02 10:09:35;;;;;;;10.10;9.20;;;10.80;99.90;;;;;;10350309;28;20245;-78
2022/01/02 10:14:39;;;;;;;9.70;8.90;;;10.90;99.90;;;;;;10347325;28;20273;-78
2022/01/02 10:19:42;;;;;;;10.63;9.73;;;11.00;99.90;;;;;;10346814;28;20227;-79
2022/01/02 10:24:47;;;;;;;10.30;9.37;;;11.10;99.90;;;;;;10349109;28;20223;-80
2022/01/02 10:29:54;;;;;;;10.20;9.20;;;11.10;99.90;;;;;;10345571;28;20583;-79
2022/01/02 10:35:15;;;;;;;9.93;9.03;;;11.10;99.90;;;;;;10329268;28;20203;-79
2022/01/02 10:40:29;;;;;;;10.63;9.70;;;11.10;99.90;;;;;;10342951;28;20211;-79
2022/01/02 10:45:38;;;;;;;10.13;9.13;;;11.00;99.90;;;;;;10343994;28;20609;-79
2022/01/02 10:50:59;;;;;;;9.50;8.70;;;11.00;99.90;;;;;;10365415;28;20226;-79
2022/01/02 10:56:02;;;;;;;10.00;8.20;;;11.10;99.90;;;;;;10364959;28;20202;-80
2022/01/02 11:01:07;;;;;;;10.57;9.60;;;11.10;99.90;;;;;;10370120;28;20226;-79
2022/01/02 11:06:13;;;;;;;11.23;10.20;;;11.20;99.90;;;;;;10381465;28;20226;-79
2022/01/02 11:11:15;;;;;;;10.17;9.27;;;11.20;99.90;;;;;;10382669;28;20273;-80
2022/01/02 11:16:20;;;;;;;9.10;8.30;;;11.20;99.90;;;;;;10374470;28;20217;-80
2022/01/02 11:21:25;;;;;;;9.67;8.87;;;11.20;99.90;;;;;;10375453;28;20766;-80
2022/01/02 11:26:44;;;;;;;9.70;8.90;;;11.30;99.90;;;;;;10377655;28;20758;-79
2022/01/02 11:31:48;;;;;;;8.90;8.00;;;11.30;99.90;;;;;;10380194;28;20276;-80
2022/01/02 11:36:50;;;;;;;9.50;8.67;;;11.40;99.90;;;;;;10379757;28;20203;-79
2022/01/02 11:41:53;;;;;;;9.37;8.57;;;11.50;99.90;;;;;;10373597;28;20231;-80
2022/01/02 11:46:58;;;;;;;3.70;3.40;;;11.60;99.90;;;;;;10371800;28;20667;-81
2022/01/02 11:52:23;;;;;;;2.60;2.50;;;11.60;99.90;;;;;;10366362;28;20238;-79
2022/01/02 11:57:55;;;;;;;2.17;2.07;;;11.80;99.90;;;;;;10378541;28;20202;-80
2022/01/02 12:02:58;;;;;;;7.90;7.20;;;12.00;99.90;;;;;;10377428;28;20292;-81
2022/01/02 12:08:01;;;;;;;5.43;4.93;;;12.10;99.90;;;;;;10379740;28;20224;-80
2022/01/02 12:13:24;;;;;;;2.93;2.63;;;12.20;99.90;;;;;;10378336;28;20227;-80
2022/01/02 12:18:29;;;;;;;2.90;2.10;;;12.30;99.90;;;;;;10383724;28;20305;-80
2022/01/02 12:23:53;;;;;;;2.50;2.30;;;12.40;99.90;;;;;;10372165;28;20233;-80
2022/01/02 12:29:01;;;;;;;2.50;2.30;;;12.70;99.90;;;;;;10373465;28;20199;-78
2022/01/02 12:34:10;;;;;;;2.23;2.03;;;12.90;99.90;;;;;;10373095;28;20305;-81
2022/01/02 12:39:13;;;;;;;2.50;2.40;;;13.10;99.90;;;;;;10367832;28;20229;-80
2022/01/02 12:44:27;;;;;;;2.60;2.07;;;13.30;99.90;;;;;;10373973;28;20589;-80
2022/01/02 12:49:32;;;;;;;2.20;2.07;;;13.40;99.90;;;;;;10354679;28;20191;-78
2022/01/02 12:54:36;;;;;;;2.27;2.17;;;13.40;99.90;;;;;;10443727;22;20229;-82
2022/01/02 12:59:39;;;;;;;3.27;2.53;;;13.40;99.90;;;;;;10454331;28;20224;-82
2022/01/02 13:04:45;;;;;;;2.67;2.57;;;13.40;99.90;;;;;;10454366;28;20225;-83
2022/01/02 13:09:48;;;;;;;2.30;2.10;;;13.50;99.90;;;;;;10447871;28;20649;-83
2022/01/02 13:14:52;;;;;;;3.00;2.80;;;13.50;99.90;;;;;;10465149;28;20720;-81
2022/01/02 13:20:01;;;;;;;2.80;2.60;;;13.60;99.30;;;;;;10459974;28;20312;-81
2022/01/02 13:25:07;;;;;;;3.00;2.30;;;13.80;98.40;;;;;;10444310;28;20300;-80
2022/01/02 13:30:09;;;;;;;3.20;2.90;;;14.00;98.20;;;;;;10422662;28;20198;-78
2022/01/02 13:35:14;;;;;;;4.43;2.47;;;14.00;97.70;;;;;;10420103;28;20222;-81
2022/01/02 13:40:25;;;;;;;2.63;2.53;;;14.10;97.50;;;;;;10449490;28;20205;-81
2022/01/02 13:45:29;;;;;;;3.50;3.07;;;14.10;99.20;;;;;;10459599;28;20274;-80
2022/01/02 13:50:35;;;;;;;5.43;2.90;;;14.00;97.70;;;;;;10452640;28;20284;-81
2022/01/02 13:55:38;;;;;;;2.60;2.47;;;14.00;98.60;;;;;;10452935;28;20350;-81
2022/01/02 14:00:45;;;;;;;3.30;3.00;;;14.00;97.40;;;;;;10455124;28;20206;-81
2022/01/02 14:05:48;;;;;;;2.93;2.70;;;14.00;97.40;;;;;;10461295;28;20766;-80
2022/01/02 14:11:07;;;;;;;4.80;2.50;;;13.90;98.20;;;;;;10459741;28;20208;-81
2022/01/02 14:16:15;;;;;;;2.97;2.77;;;14.00;96.90;;;;;;10437827;28;20233;-81
2022/01/02 14:21:18;;;;;;;2.67;2.47;;;14.00;97.30;;;;;;10457064;28;20306;-80
2022/01/02 14:26:23;;;;;;;4.07;2.90;;;14.00;97.70;;;;;;10457183;28;20212;-80
2022/01/02 14:31:27;;;;;;;2.90;2.70;;;13.90;97.90;;;;;;10457910;28;20216;-80
2022/01/02 14:36:30;;;;;;;4.00;2.90;;;13.90;98.00;;;;;;10449498;28;20577;-80
2022/01/02 14:41:32;;;;;;;3.13;2.90;;;13.90;98.80;;;;;;10450870;28;20217;-81
2022/01/02 14:46:34;;;;;;;3.00;2.47;;;13.80;99.90;;;;;;10444962;28;20201;-81
2022/01/02 14:51:38;;;;;;;5.77;3.00;;;13.70;99.90;;;;;;10447006;28;20320;-81
2022/01/02 14:56:42;;;;;;;3.50;3.20;;;13.60;99.90;;;;;;10457253;28;20197;-79
2022/01/02 15:01:44;;;;;;;3.37;2.90;;;13.50;99.90;;;;;;10459909;28;20736;-80
2022/01/02 15:06:48;;;;;;;4.07;2.80;;;13.40;99.90;;;;;;10456691;28;20214;-80
2022/01/02 15:11:50;;;;;;;2.50;2.30;;;13.40;99.90;;;;;;10434022;28;20732;-80
2022/01/02 15:16:53;;;;;;;2.70;2.50;;;13.40;99.90;;;;;;10456893;28;20238;-80
2022/01/02 15:21:56;;;;;;;2.40;2.30;;;13.50;99.90;;;;;;10448597;28;20743;-82
2022/01/02 15:26:58;;;;;;;2.97;2.77;;;13.50;99.90;;;;;;10457623;28;20197;-82
2022/01/02 15:32:01;;;;;;;3.87;2.83;;;13.50;99.90;;;;;;10439423;28;20225;-82
2022/01/02 15:37:06;;;;;;;3.07;2.77;;;13.50;99.90;;;;;;10444180;28;20660;-83
2022/01/02 15:42:08;;;;;;;4.07;3.00;;;13.40;99.90;;;;;;10458249;28;20235;-82
2022/01/02 15:47:12;;;;;;;2.83;2.63;;;13.30;99.90;;;;;;10441610;28;20559;-84
2022/01/02 15:52:15;;;;;;;3.63;3.33;;;13.20;99.90;;;;;;10431337;28;20225;-85
2022/01/02 15:57:17;;;;;;;3.80;3.50;;;13.10;99.90;;;;;;10454893;28;20288;-85
2022/01/02 16:02:19;;;;;;;3.83;3.30;;;13.00;99.90;;;;;;10457195;28;20245;-84
2022/01/02 16:07:23;;;;;;;3.50;3.20;;;12.90;99.90;;;;;;10454208;28;20226;-83
2022/01/02 16:12:25;;;;;;;4.37;3.97;;;12.80;99.90;;;;;;10443247;28;20227;-84
2022/01/02 16:17:27;;;;;;;5.00;3.30;;;12.80;99.90;;;;;;10460552;28;20212;-84
2022/01/02 16:22:31;;;;;;;5.43;3.20;;;12.60;99.90;;;;;;10465973;28;20232;-84
2022/01/02 16:27:33;;;;;;;3.40;3.10;;;12.50;99.90;;;;;;10469775;28;20203;-82
2022/01/02 16:32:35;;;;;;;4.60;3.37;;;12.40;99.90;;;;;;10477791;28;20221;-84
2022/01/02 16:37:39;;;;;;;3.23;2.93;;;12.40;99.90;;;;;;10481557;28;20228;-84
2022/01/02 16:42:41;;;;;;;3.70;3.40;;;12.20;99.90;;;;;;10449587;28;20227;-84
2022/01/02 16:47:43;;;;;;;3.30;3.10;;;12.10;99.90;;;;;;10460364;28;20280;-84
2022/01/02 16:52:46;;;;;;;4.03;3.20;;;12.00;99.90;;;;;;10439138;28;20799;-84
2022/01/02 16:57:48;;;;;;;4.90;4.40;;;11.90;99.90;;;;;;10456983;28;20209;-84
2022/01/02 17:02:55;;;;;;;8.47;7.20;;;11.80;99.90;;;;;;10459373;28;20221;-84
2022/01/02 17:07:59;;;;;;;7.27;6.57;;;11.70;99.90;;;;;;10457260;28;20209;-84
2022/01/02 17:13:01;;;;;;;7.47;6.17;;;11.60;99.90;;;;;;10447253;28;20684;-84
2022/01/02 17:18:04;;;;;;;5.60;5.10;;;11.50;99.90;;;;;;10463601;28;20673;-83
2022/01/02 17:23:07;;;;;;;4.90;3.73;;;11.40;99.90;;;;;;10467971;28;20257;-83
2022/01/02 17:28:10;;;;;;;8.50;7.43;;;11.30;99.90;;;;;;10453306;28;20197;-84
2022/01/02 17:33:12;;;;;;;4.37;4.07;;;11.20;99.90;;;;;;10468549;28;20224;-84
2022/01/02 17:38:16;;;;;;;5.53;4.90;;;11.20;99.90;;;;;;10444028;28;20208;-84
2022/01/02 17:43:19;;;;;;;5.00;4.60;;;11.10;99.90;;;;;;10449727;28;20251;-84
2022/01/02 17:48:21;;;;;;;5.23;4.73;;;11.10;99.90;;;;;;10448875;28;20200;-84
2022/01/02 17:53:25;;;;;;;5.60;4.70;;;11.00;99.90;;;;;;10459857;28;20225;-84
2022/01/02 17:58:27;;;;;;;5.57;5.07;;;11.00;99.90;;;;;;10459384;28;20197;-85
2022/01/02 18:03:29;;;;;;;8.87;7.50;;;10.90;99.90;;;;;;10446795;28;20237;-85
2022/01/02 18:08:32;;;;;;;7.73;6.60;;;10.80;99.90;;;;;;10456140;28;20432;-84
2022/01/02 18:13:37;;;;;;;7.03;6.33;;;10.70;99.90;;;;;;10466909;28;20241;-85
2022/01/02 18:18:40;;;;;;;7.10;6.07;;;10.60;99.90;;;;;;10464080;28;20205;-84
2022/01/02 18:23:46;;;;;;;8.77;7.97;;;10.60;99.90;;;;;;10445378;28;20233;-84
2022/01/02 18:28:49;;;;;;;9.87;8.00;;;10.50;99.90;;;;;;10433477;28;20213;-84
2022/01/02 18:33:51;;;;;;;7.83;6.20;;;10.50;99.90;;;;;;10423913;28;20250;-84
2022/01/02 18:38:55;;;;;;;7.60;6.80;;;10.50;99.90;;;;;;10422438;28;20287;-84
2022/01/02 18:43:57;;;;;;;8.23;7.40;;;10.40;99.90;;;;;;10423322;28;20227;-85
2022/01/02 18:49:00;;;;;;;6.97;6.33;;;10.40;99.90;;;;;;10446237;28;20545;-84
2022/01/02 18:54:04;;;;;;;5.90;5.40;;;10.30;99.90;;;;;;10501462;23;20235;-81
2022/01/02 18:59:06;;;;;;;6.53;5.67;;;10.30;99.90;;;;;;10475028;28;20228;-79
2022/01/02 19:04:08;;;;;;;6.33;5.73;;;10.20;99.90;;;;;;10519832;28;20336;-81
2022/01/02 19:09:12;;;;;;;6.47;5.77;;;10.20;99.90;;;;;;10519417;28;20205;-81
2022/01/02 19:14:14;;;;;;;7.07;6.37;;;10.10;99.90;;;;;;10502737;28;20220;-81
2022/01/02 19:19:16;;;;;;;6.63;6.03;;;10.10;99.90;;;;;;10503211;28;20228;-77
2022/01/02 19:24:19;;;;;;;7.23;6.63;;;10.10;99.90;;;;;;10504304;28;20299;-79
2022/01/02 19:29:22;;;;;;;11.80;10.10;;;10.10;99.90;;;;;;10505345;28;20575;-79
2022/01/02 19:34:24;;;;;;;10.17;9.17;;;10.10;99.90;;;;;;10509012;28;20680;-77
2022/01/02 19:39:28;;;;;;;9.97;9.00;;;10.10;99.90;;;;;;10500244;28;20256;-80
2022/01/02 19:44:31;;;;;;;7.43;6.70;;;10.10;99.90;;;;;;10525795;28;20740;-78
2022/01/02 19:49:33;;;;;;;15.83;13.60;;;10.20;99.90;;;;;;10534863;28;20210;-79
2022/01/02 19:54:37;;;;;;;10.33;7.53;;;10.20;99.90;;;;;;10532132;28;20330;-81
2022/01/02 19:59:39;;;;;;;7.83;7.03;;;10.20;99.90;;;;;;10538432;28;20222;-80
2022/01/02 20:04:41;;;;;;;8.10;7.20;;;10.30;99.90;;;;;;10533222;28;20729;-79
2022/01/02 20:09:44;;;;;;;7.40;6.70;;;10.40;99.90;;;;;;10534641;28;20207;-80
2022/01/02 20:14:47;;;;;;;10.67;9.63;;;10.50;99.90;;;;;;10539819;28;20223;-80
2022/01/02 20:19:49;;;;;;;7.33;6.73;;;10.60;99.90;;;;;;10532072;28;20214;-78
2022/01/02 20:24:52;;;;;;;5.10;4.70;;;10.60;99.90;;;;;;10512312;28;20232;-79
2022/01/02 20:29:54;;;;;;;6.90;5.93;;;10.70;99.90;;;;;;10512349;28;20191;-81
2022/01/02 20:34:56;;;;;;;6.40;5.77;;;10.70;99.90;;;;;;10530523;28;20234;-82
2022/01/02 20:40:01;;;;;;;7.47;6.40;;;10.80;99.90;;;;;;10525566;28;20861;-81
2022/01/02 20:45:04;;;;;;;8.50;7.30;;;10.80;99.90;;;;;;10534331;28;20277;-80
2022/01/02 20:50:07;;;;;;;6.50;6.00;;;10.90;99.90;;;;;;10517731;28;20291;-81
2022/01/02 20:55:12;;;;;;;8.53;7.40;;;10.90;99.90;;;;;;10509844;28;20236;-81
2022/01/02 21:00:16;;;;;;;7.90;6.50;;;10.90;99.90;;;;;;10522152;28;20303;-80
2022/01/02 21:05:19;;;;;;;6.97;6.47;;;10.90;99.90;;;;;;10529185;28;20298;-81
2022/01/02 21:10:23;;;;;;;9.67;8.87;;;10.80;99.90;;;;;;10547090;28;20196;-81
2022/01/02 21:15:25;;;;;;;8.60;7.10;;;10.80;99.90;;;;;;10542475;28;20215;-80
2022/01/02 21:20:28;;;;;;;6.90;6.30;;;10.70;99.90;;;;;;10530582;28;20758;-79
2022/01/02 21:25:32;;;;;;;6.60;6.00;;;10.80;99.90;;;;;;10540195;28;20249;-79
2022/01/02 21:30:35;;;;;;;6.20;5.60;;;10.80;99.90;;;;;;10537121;28;20214;-78
2022/01/02 21:35:37;;;;;;;7.57;5.47;;;10.80;99.90;;;;;;10531040;28;20243;-81
2022/01/02 21:40:41;;;;;;;5.37;4.83;;;10.90;99.90;;;;;;10534337;28;20299;-80
2022/01/02 21:45:44;;;;;;;7.70;4.33;;;11.00;99.90;;;;;;10515436;28;20239;-79
2022/01/02 21:50:46;;;;;;;5.77;4.27;;;11.00;99.90;;;;;;10512271;28;20204;-78
2022/01/02 21:55:50;;;;;;;3.43;2.93;;;11.10;99.90;;;;;;10522338;28;20227;-78
2022/01/02 22:00:53;;;;;;;2.30;2.20;;;11.30;99.90;;;;;;10528818;28;20215;-78
2022/01/02 22:06:00;;;;;;;2.70;2.50;;;11.40;99.90;;;;;;10531819;28;20188;-78
2022/01/02 22:11:04;;;;;;;3.10;2.80;;;11.50;99.90;;;;;;10528479;28;20203;-79
2022/01/02 22:16:06;;;;;;;3.53;2.50;;;11.60;99.90;;;;;;10537040;28;20724;-79
2022/01/02 22:21:09;;;;;;;2.70;2.20;;;11.70;99.90;;;;;;10532840;28;20216;-79
2022/01/02 22:26:13;;;;;;;4.43;2.63;;;11.80;99.90;;;;;;10529963;28;20230;-79
2022/01/02 22:31:20;;;;;;;5.60;2.83;;;11.90;99.90;;;;;;10542586;28;20215;-78
2022/01/02 22:36:22;;;;;;;3.77;2.93;;;12.00;99.90;;;;;;10546032;28;20199;-78
2022/01/02 22:41:26;;;;;;;3.03;2.40;;;12.10;99.90;;;;;;10531398;28;20234;-81
2022/01/02 22:46:29;;;;;;;4.03;2.30;;;12.20;99.90;;;;;;10538041;28;20219;-81
2022/01/02 22:51:32;;;;;;;2.60;2.40;;;12.20;99.90;;;;;;10531873;28;20311;-81
2022/01/02 22:56:37;;;;;;;6.97;2.50;;;12.20;99.90;;;;;;10533641;28;20279;-81
2022/01/02 23:01:39;;;;;;;3.23;2.93;;;12.30;99.90;;;;;;10529064;28;20231;-81
2022/01/02 23:06:42;;;;;;;3.93;2.77;;;12.30;99.90;;;;;;10542326;28;20286;-82
2022/01/02 23:11:46;;;;;;;4.40;3.00;;;12.30;99.90;;;;;;10530161;28;20700;-80
2022/01/02 23:16:52;;;;;;;3.07;2.43;;;12.30;99.90;;;;;;10543703;28;20203;-79
2022/01/02 23:21:56;;;;;;;4.80;2.80;;;12.30;99.90;;;;;;10541256;28;20219;-81
2022/01/02 23:27:01;;;;;;;3.17;2.17;;;12.30;99.90;;;;;;10544114;28;20203;-82
2022/01/02 23:32:05;;;;;;;2.53;2.30;;;12.40;99.90;;;;;;10527643;28;20682;-81
2022/01/02 23:37:09;;;;;;;2.47;2.23;;;12.40;99.90;;;;;;10540967;28;20228;-81
2022/01/02 23:42:12;;;;;;;5.50;2.70;;;12.50;99.90;;;;;;10547933;28;20223;-80
2022/01/02 23:47:16;;;;;;;2.50;2.30;;;12.50;99.90;;;;;;10539999;28;20200;-79
2022/01/02 23:52:27;;;;;;;4.20;2.57;;;12.50;99.90;;;;;;10532356;28;20224;-79
2022/01/02 23:57:31;;;;;;;3.63;2.30;;;12.60;99.90;;;;;;10538406;28;20282;-79
